Terminal Aerodrome Forecast
Issued by NWS Charleston, WV

Home | Current Version | Previous Version | Text Only | Print | Product List | Glossary On
Versions: 1 2 3 4 5 6 7 8 9 10 11 12 13 14 15 16 17 18 19 20 21 22 23 24 25
000
FTUS41 KRLX 191120
TAFCRW
TAF
KCRW 191120Z 1912/2012 VRB02KT 4SM BR SCT001 SCT050
     FM191230 23004KT P6SM SCT150 BKN200
     FM191900 25006KT P6SM BKN100
     FM200000 25002KT P6SM SCT100
     FM200700 00000KT 5SM BR SCT250
     FM200800 00000KT 1SM BR BKN001
     FM201000 00000KT 1/4SM FG VV001=

USA.gov is the U.S. government's official web portal to all federal, state and local government web resources and services.